< < Back
Terminal Aerodrome Forecast


Current Version              Previous Versions:   1  2  3  4  5  6  7  8  9  

Terminal Aerodrome Forecast

072
FTUS42 KFFC 270520
TAFFTY
TAF
KFTY 270520Z 2706/2806 34004KT P6SM FEW250
     FM271200 34005KT P6SM SCT025
     FM271500 34007KT P6SM SCT250
     FM280100 35002KT P6SM SCT025=

Latest METAR

129
SAUS70 KWBC 271556
MTRFTY
METAR KFTY 271553Z 32007KT 10SM CLR 03/M04 A3041 RMK AO2 SLP305
T00281044


USA.gov is the U.S. government's official web portal to all federal, state and local government web resources and services.